createdAt,value
2022-12-11T00:00:29.577Z,28.50
2022-12-11T00:05:52.379Z,27.90
2022-12-11T00:10:55.284Z,29.00
2022-12-11T00:15:59.067Z,28.20
2022-12-11T00:21:03.671Z,28.50
2022-12-11T00:26:10.112Z,28.40
2022-12-11T00:31:17.130Z,28.20
2022-12-11T00:36:22.766Z,26.80
2022-12-11T00:41:25.955Z,26.40
2022-12-11T00:46:28.944Z,23.70
2022-12-11T00:51:31.814Z,28.60
2022-12-11T00:56:34.626Z,25.10
2022-12-11T01:01:37.430Z,26.60
2022-12-11T01:06:40.248Z,29.20
2022-12-11T01:11:43.350Z,29.20
2022-12-11T01:16:47.137Z,28.90
2022-12-11T01:21:49.953Z,27.10
2022-12-11T01:26:52.939Z,23.60
2022-12-11T01:31:58.187Z,25.30
2022-12-11T01:37:02.100Z,28.60
2022-12-11T01:42:06.942Z,28.70
2022-12-11T01:47:10.057Z,26.20
2022-12-11T01:52:16.701Z,24.90
2022-12-11T01:57:21.077Z,24.60
2022-12-11T02:02:27.975Z,26.50
2022-12-11T02:07:33.815Z,23.30
2022-12-11T02:12:39.653Z,23.00
2022-12-11T02:18:32.767Z,24.00
2022-12-11T02:23:56.309Z,23.30
2022-12-11T02:29:05.523Z,24.50
2022-12-11T02:34:49.424Z,25.30
2022-12-11T02:39:53.194Z,23.10
2022-12-11T02:44:57.255Z,24.90
2022-12-11T02:50:03.249Z,25.60
2022-12-11T02:55:07.170Z,26.00
2022-12-11T03:00:11.426Z,27.40
2022-12-11T03:05:15.794Z,24.60
2022-12-11T03:10:19.730Z,26.30
2022-12-11T03:15:46.970Z,24.40
2022-12-11T03:21:31.971Z,21.60
2022-12-11T03:26:45.152Z,23.90
2022-12-11T03:32:06.719Z,23.10
2022-12-11T03:37:09.550Z,20.70
2022-12-11T03:42:14.500Z,21.70
2022-12-11T03:47:20.201Z,18.60
2022-12-11T03:52:23.101Z,19.30
2022-12-11T03:57:29.621Z,19.30
2022-12-11T04:02:32.428Z,18.20
2022-12-11T04:07:35.487Z,19.70
2022-12-11T04:12:40.371Z,17.70
2022-12-11T04:18:03.826Z,18.80
2022-12-11T04:23:34.970Z,20.00
2022-12-11T04:28:38.929Z,18.40
2022-12-11T04:33:42.264Z,19.90
2022-12-11T04:38:46.361Z,17.50
2022-12-11T04:43:49.108Z,20.90
2022-12-11T04:48:56.991Z,20.00
2022-12-11T04:54:03.175Z,20.20
2022-12-11T04:59:06.319Z,20.70
2022-12-11T05:04:12.366Z,22.20
2022-12-11T05:09:15.635Z,20.10
2022-12-11T05:14:18.790Z,21.60
2022-12-11T05:19:22.252Z,20.40
2022-12-11T05:24:26.792Z,20.10
2022-12-11T05:29:31.792Z,17.10
2022-12-11T05:34:35.154Z,20.00
2022-12-11T05:39:39.294Z,18.80
2022-12-11T05:44:42.254Z,16.80
2022-12-11T05:49:47.985Z,18.40
2022-12-11T05:54:50.829Z,9.90
2022-12-11T05:59:54.037Z,15.10
2022-12-11T06:04:56.959Z,15.30
2022-12-11T06:10:02.225Z,13.50
2022-12-11T06:15:05.968Z,12.80
2022-12-11T06:20:11.600Z,11.60
2022-12-11T06:25:14.478Z,11.80
2022-12-11T06:30:19.556Z,12.40
2022-12-11T06:35:22.329Z,13.40
2022-12-11T06:40:25.188Z,9.30
2022-12-11T06:45:28.493Z,14.30
2022-12-11T06:50:31.468Z,12.30
2022-12-11T06:55:37.523Z,12.10
2022-12-11T07:00:40.390Z,10.90
2022-12-11T07:05:43.264Z,12.10
2022-12-11T07:10:47.398Z,11.50
2022-12-11T07:15:50.523Z,10.80
2022-12-11T07:20:53.362Z,11.30
2022-12-11T07:25:56.479Z,11.50
2022-12-11T07:30:59.687Z,11.00
2022-12-11T07:36:07.619Z,10.50
2022-12-11T07:41:12.895Z,6.70
2022-12-11T07:46:37.736Z,8.90
2022-12-11T07:51:44.120Z,11.30
2022-12-11T07:56:53.416Z,12.30
2022-12-11T08:01:57.125Z,11.20
2022-12-11T08:07:01.298Z,11.80
2022-12-11T08:12:05.993Z,13.20
2022-12-11T08:17:08.987Z,14.30
2022-12-11T08:22:13.651Z,13.80
2022-12-11T08:27:16.600Z,13.70
2022-12-11T08:32:19.368Z,14.80
2022-12-11T08:37:24.506Z,14.80
2022-12-11T08:42:28.507Z,14.60
2022-12-11T08:47:31.959Z,15.20
2022-12-11T08:52:35.949Z,13.80
2022-12-11T08:57:39.839Z,13.60
2022-12-11T09:02:43.925Z,13.30
2022-12-11T09:07:48.207Z,14.80
2022-12-11T09:12:51.103Z,12.40
2022-12-11T09:17:55.157Z,14.20
2022-12-11T09:22:58.155Z,13.60
2022-12-11T09:28:01.997Z,12.70
2022-12-11T09:33:04.932Z,12.80
2022-12-11T09:38:08.496Z,12.90
2022-12-11T09:43:31.832Z,13.40
2022-12-11T09:48:35.447Z,10.90
2022-12-11T09:53:38.361Z,11.00
2022-12-11T09:59:15.244Z,10.70
2022-12-11T10:04:48.747Z,10.80
2022-12-11T10:10:25.886Z,12.70
2022-12-11T10:16:01.249Z,12.80
2022-12-11T10:21:04.184Z,13.80
2022-12-11T10:26:33.486Z,12.90
2022-12-11T10:31:54.838Z,11.70
2022-12-11T10:37:00.594Z,13.70
2022-12-11T10:42:13.967Z,11.40
2022-12-11T10:47:18.353Z,12.80
2022-12-11T10:52:25.354Z,11.80
2022-12-11T10:57:36.456Z,12.10
2022-12-11T11:02:41.631Z,12.70
2022-12-11T11:07:44.836Z,10.00
2022-12-11T11:12:49.310Z,12.20
2022-12-11T11:17:55.997Z,9.40
2022-12-11T11:23:01.903Z,7.60
2022-12-11T11:28:09.677Z,9.00
2022-12-11T11:33:14.109Z,8.20
2022-12-11T11:38:23.169Z,10.00
2022-12-11T11:43:35.088Z,7.80
2022-12-11T11:49:13.096Z,6.70
2022-12-11T11:54:44.514Z,8.80
2022-12-11T11:59:56.014Z,7.80
2022-12-11T12:04:58.821Z,9.50
2022-12-11T12:10:15.941Z,10.00
2022-12-11T12:15:47.884Z,7.70
2022-12-11T12:21:24.190Z,8.60
2022-12-11T12:26:33.455Z,8.90
2022-12-11T12:32:13.485Z,8.70
2022-12-11T12:37:36.280Z,8.80
2022-12-11T12:43:35.736Z,9.00
2022-12-11T12:54:00.520Z,9.40
2022-12-11T12:59:03.956Z,8.50
2022-12-11T13:04:08.630Z,10.00
2022-12-11T13:09:25.426Z,10.00
2022-12-11T13:14:33.027Z,8.60
2022-12-11T13:19:42.624Z,10.90
2022-12-11T13:25:01.816Z,10.70
2022-12-11T13:30:23.628Z,10.40
2022-12-11T13:35:26.582Z,10.60
2022-12-11T13:40:39.880Z,9.80
2022-12-11T13:45:42.823Z,10.60
2022-12-11T13:50:46.193Z,11.30
2022-12-11T13:56:03.518Z,10.20
2022-12-11T14:01:13.398Z,9.40
2022-12-11T14:06:18.811Z,8.50
2022-12-11T14:11:28.029Z,9.80
2022-12-11T14:16:37.093Z,6.30
2022-12-11T14:21:39.956Z,9.50
2022-12-11T14:26:51.689Z,10.60
2022-12-11T14:31:56.668Z,11.20
2022-12-11T14:36:59.550Z,10.50
2022-12-11T14:42:05.444Z,9.70
2022-12-11T14:47:15.945Z,11.30
2022-12-11T14:52:30.526Z,9.50
2022-12-11T14:57:33.712Z,9.80
2022-12-11T15:02:37.159Z,10.60
2022-12-11T15:07:44.230Z,8.00
2022-12-11T15:12:47.056Z,10.40
2022-12-11T15:17:52.894Z,10.10
2022-12-11T15:22:58.551Z,11.50
2022-12-11T15:28:01.429Z,9.80
2022-12-11T15:33:10.456Z,10.40
2022-12-11T15:38:30.440Z,11.20
2022-12-11T15:43:36.316Z,6.80
2022-12-11T15:48:39.370Z,7.00
2022-12-11T15:53:42.260Z,8.90
2022-12-11T15:58:45.201Z,11.80
2022-12-11T16:03:50.339Z,10.20
2022-12-11T16:08:53.496Z,10.60
2022-12-11T16:13:56.374Z,11.20
2022-12-11T16:18:59.207Z,10.40
2022-12-11T16:24:02.783Z,10.20
2022-12-11T16:29:05.586Z,10.20
2022-12-11T16:34:08.425Z,8.50
2022-12-11T16:39:13.171Z,7.50
2022-12-11T16:44:21.004Z,7.30
2022-12-11T16:49:23.882Z,6.90
2022-12-11T16:54:26.688Z,9.60
2022-12-11T16:59:35.151Z,10.10
2022-12-11T17:04:40.208Z,8.90
2022-12-11T17:09:46.106Z,9.90
2022-12-11T17:14:48.897Z,9.40
2022-12-11T17:19:52.221Z,10.30
2022-12-11T17:24:55.100Z,8.60
2022-12-11T17:29:57.948Z,8.60
2022-12-11T17:35:00.857Z,7.80
2022-12-11T17:40:05.233Z,8.90
2022-12-11T17:45:08.391Z,9.50
2022-12-11T17:50:11.390Z,9.10
2022-12-11T17:55:14.697Z,7.40
2022-12-11T18:00:18.375Z,9.20
2022-12-11T18:05:26.673Z,9.70
2022-12-11T18:10:29.948Z,8.60
2022-12-11T18:15:33.369Z,8.80
2022-12-11T18:20:38.319Z,8.30
2022-12-11T18:25:41.187Z,8.50
2022-12-11T18:30:46.192Z,8.70
2022-12-11T18:35:50.435Z,8.70
2022-12-11T18:40:53.226Z,8.90
2022-12-11T18:45:56.578Z,9.80
2022-12-11T18:51:00.505Z,9.00
2022-12-11T18:56:13.912Z,8.30
2022-12-11T19:01:20.385Z,8.70
2022-12-11T19:06:25.646Z,9.70
2022-12-11T19:11:30.288Z,10.10
2022-12-11T19:16:38.724Z,9.60
2022-12-11T19:26:44.637Z,10.60
2022-12-11T19:31:47.697Z,11.70
2022-12-11T19:36:50.696Z,12.30
2022-12-11T19:41:53.493Z,11.40
2022-12-11T19:46:56.329Z,11.80
2022-12-11T19:51:59.208Z,10.90
2022-12-11T19:57:02.152Z,11.40
2022-12-11T20:02:05.032Z,12.50
2022-12-11T20:07:08.431Z,11.20
2022-12-11T20:12:11.274Z,11.30
2022-12-11T20:17:14.949Z,10.90
2022-12-11T20:22:18.168Z,10.80
2022-12-11T20:27:21.250Z,10.60
2022-12-11T20:32:24.089Z,12.00
2022-12-11T20:37:29.168Z,11.20
2022-12-11T20:42:33.556Z,12.30
2022-12-11T20:47:36.900Z,12.80
2022-12-11T20:52:40.640Z,11.40
2022-12-11T20:57:45.241Z,10.90
2022-12-11T21:02:50.870Z,9.30
2022-12-11T21:07:56.284Z,9.80
2022-12-11T21:12:59.188Z,9.30
2022-12-11T21:18:02.224Z,9.20
2022-12-11T21:23:04.977Z,8.90
2022-12-11T21:28:08.263Z,9.50
2022-12-11T21:33:12.110Z,9.30
2022-12-11T21:38:15.010Z,9.80
2022-12-11T21:43:17.835Z,9.40
2022-12-11T21:48:21.061Z,9.40
2022-12-11T21:53:23.943Z,9.90
2022-12-11T21:58:26.820Z,10.40
2022-12-11T22:03:29.641Z,10.40
2022-12-11T22:08:32.487Z,10.80
2022-12-11T22:13:35.520Z,11.00
2022-12-11T22:18:38.517Z,11.30
2022-12-11T22:23:41.541Z,12.20
2022-12-11T22:28:44.316Z,11.90
2022-12-11T22:33:50.114Z,10.90
2022-12-11T22:38:53.177Z,11.70
2022-12-11T22:43:56.572Z,11.50
2022-12-11T22:48:59.596Z,11.80
2022-12-11T22:54:02.648Z,10.80
2022-12-11T22:59:07.638Z,10.20
2022-12-11T23:04:10.440Z,11.60
2022-12-11T23:09:13.369Z,10.90
2022-12-11T23:14:17.579Z,11.30
2022-12-11T23:19:25.274Z,11.60
2022-12-11T23:24:30.354Z,10.70
2022-12-11T23:29:34.906Z,11.40
2022-12-11T23:34:37.758Z,12.20
2022-12-11T23:39:42.971Z,12.10
2022-12-11T23:44:46.176Z,12.40
2022-12-11T23:49:49.000Z,12.00
2022-12-11T23:54:51.960Z,11.40
2022-12-11T23:59:54.727Z,11.30
